sensor_id;sensor_type;location;lat;lon;timestamp;temperature;humidity
2623;DHT22;1321;48.690;9.022;2022-08-27T00:01:41;25.00;99.90
2623;DHT22;1321;48.690;9.022;2022-08-27T00:04:10;25.00;99.90
2623;DHT22;1321;48.690;9.022;2022-08-27T00:06:39;25.00;99.90
2623;DHT22;1321;48.690;9.022;2022-08-27T00:09:07;25.00;99.90
2623;DHT22;1321;48.690;9.022;2022-08-27T00:11:37;25.00;99.90
2623;DHT22;1321;48.690;9.022;2022-08-27T00:14:05;25.00;99.90
2623;DHT22;1321;48.690;9.022;2022-08-27T00:16:33;25.00;99.90
2623;DHT22;1321;48.690;9.022;2022-08-27T00:19:01;25.00;99.90
2623;DHT22;1321;48.690;9.022;2022-08-27T00:21:30;25.00;99.90
2623;DHT22;1321;48.690;9.022;2022-08-27T00:23:59;24.90;99.90
2623;DHT22;1321;48.690;9.022;2022-08-27T00:26:27;24.90;99.90
2623;DHT22;1321;48.690;9.022;2022-08-27T00:28:57;25.00;99.90
2623;DHT22;1321;48.690;9.022;2022-08-27T00:31:25;24.90;99.90
2623;DHT22;1321;48.690;9.022;2022-08-27T00:33:54;25.00;99.90
2623;DHT22;1321;48.690;9.022;2022-08-27T00:36:22;24.90;99.90
2623;DHT22;1321;48.690;9.022;2022-08-27T00:38:51;25.00;99.90
2623;DHT22;1321;48.690;9.022;2022-08-27T00:41:20;24.90;99.90
2623;DHT22;1321;48.690;9.022;2022-08-27T00:43:51;24.90;99.90
2623;DHT22;1321;48.690;9.022;2022-08-27T00:46:24;25.00;99.90
2623;DHT22;1321;48.690;9.022;2022-08-27T00:48:56;24.90;99.90
2623;DHT22;1321;48.690;9.022;2022-08-27T00:51:26;24.90;99.90
2623;DHT22;1321;48.690;9.022;2022-08-27T00:53:56;24.90;99.90
2623;DHT22;1321;48.690;9.022;2022-08-27T00:56:28;24.90;99.90
2623;DHT22;1321;48.690;9.022;2022-08-27T00:59:00;24.90;99.90
2623;DHT22;1321;48.690;9.022;2022-08-27T01:01:32;24.90;99.90
2623;DHT22;1321;48.690;9.022;2022-08-27T01:04:03;24.90;99.90
2623;DHT22;1321;48.690;9.022;2022-08-27T01:06:34;24.90;99.90
2623;DHT22;1321;48.690;9.022;2022-08-27T01:09:06;24.90;99.90
2623;DHT22;1321;48.690;9.022;2022-08-27T01:11:35;24.90;99.90
2623;DHT22;1321;48.690;9.022;2022-08-27T01:14:04;24.90;99.90
2623;DHT22;1321;48.690;9.022;2022-08-27T01:16:36;24.90;99.90
2623;DHT22;1321;48.690;9.022;2022-08-27T01:19:13;24.90;99.90
2623;DHT22;1321;48.690;9.022;2022-08-27T01:21:47;24.90;99.90
2623;DHT22;1321;48.690;9.022;2022-08-27T01:24:30;24.90;99.90
2623;DHT22;1321;48.690;9.022;2022-08-27T01:27:00;25.00;99.90
2623;DHT22;1321;48.690;9.022;2022-08-27T01:29:29;25.00;99.90
2623;DHT22;1321;48.690;9.022;2022-08-27T01:32:04;25.00;99.90
2623;DHT22;1321;48.690;9.022;2022-08-27T01:34:32;25.00;99.90
2623;DHT22;1321;48.690;9.022;2022-08-27T01:37:00;25.00;99.90
2623;DHT22;1321;48.690;9.022;2022-08-27T01:39:32;25.00;99.90
2623;DHT22;1321;48.690;9.022;2022-08-27T01:42:04;25.00;99.90
2623;DHT22;1321;48.690;9.022;2022-08-27T01:44:42;24.90;99.90
2623;DHT22;1321;48.690;9.022;2022-08-27T01:47:10;25.00;99.90
2623;DHT22;1321;48.690;9.022;2022-08-27T01:49:38;24.90;99.90
2623;DHT22;1321;48.690;9.022;2022-08-27T01:52:07;25.00;99.90
2623;DHT22;1321;48.690;9.022;2022-08-27T01:54:36;25.00;99.90
2623;DHT22;1321;48.690;9.022;2022-08-27T01:57:05;24.90;99.90
2623;DHT22;1321;48.690;9.022;2022-08-27T01:59:33;25.00;99.90
2623;DHT22;1321;48.690;9.022;2022-08-27T02:02:06;24.90;99.90
2623;DHT22;1321;48.690;9.022;2022-08-27T02:04:35;24.90;99.90
2623;DHT22;1321;48.690;9.022;2022-08-27T02:07:03;24.80;99.90
2623;DHT22;1321;48.690;9.022;2022-08-27T02:09:31;24.80;99.90
2623;DHT22;1321;48.690;9.022;2022-08-27T02:12:02;24.80;99.90
2623;DHT22;1321;48.690;9.022;2022-08-27T02:14:30;24.90;99.90
2623;DHT22;1321;48.690;9.022;2022-08-27T02:16:58;24.80;99.90
2623;DHT22;1321;48.690;9.022;2022-08-27T02:19:27;24.80;99.90
2623;DHT22;1321;48.690;9.022;2022-08-27T02:21:55;24.80;99.90
2623;DHT22;1321;48.690;9.022;2022-08-27T02:24:26;24.80;99.90
2623;DHT22;1321;48.690;9.022;2022-08-27T02:26:55;24.70;99.90
2623;DHT22;1321;48.690;9.022;2022-08-27T02:29:25;24.70;1.00
2623;DHT22;1321;48.690;9.022;2022-08-27T02:31:53;24.70;1.00
2623;DHT22;1321;48.690;9.022;2022-08-27T02:34:21;24.70;1.00
2623;DHT22;1321;48.690;9.022;2022-08-27T02:36:49;24.70;1.00
2623;DHT22;1321;48.690;9.022;2022-08-27T02:39:18;24.70;99.90
2623;DHT22;1321;48.690;9.022;2022-08-27T02:41:46;24.70;99.90
2623;DHT22;1321;48.690;9.022;2022-08-27T02:44:15;24.70;99.90
2623;DHT22;1321;48.690;9.022;2022-08-27T02:46:45;24.70;1.00
2623;DHT22;1321;48.690;9.022;2022-08-27T02:49:15;24.70;99.90
2623;DHT22;1321;48.690;9.022;2022-08-27T02:51:44;24.60;99.90
2623;DHT22;1321;48.690;9.022;2022-08-27T02:54:12;24.60;99.90
2623;DHT22;1321;48.690;9.022;2022-08-27T02:56:40;24.60;99.90
2623;DHT22;1321;48.690;9.022;2022-08-27T02:59:08;24.60;99.90
2623;DHT22;1321;48.690;9.022;2022-08-27T03:01:36;24.60;99.90
2623;DHT22;1321;48.690;9.022;2022-08-27T03:04:06;24.70;1.00
2623;DHT22;1321;48.690;9.022;2022-08-27T03:06:34;24.60;1.00
2623;DHT22;1321;48.690;9.022;2022-08-27T03:09:03;24.60;1.00
2623;DHT22;1321;48.690;9.022;2022-08-27T03:11:31;24.60;99.90
2623;DHT22;1321;48.690;9.022;2022-08-27T03:13:59;24.60;99.90
2623;DHT22;1321;48.690;9.022;2022-08-27T03:16:27;24.60;99.90
2623;DHT22;1321;48.690;9.022;2022-08-27T03:18:56;24.50;99.90
2623;DHT22;1321;48.690;9.022;2022-08-27T03:21:25;24.50;99.90
2623;DHT22;1321;48.690;9.022;2022-08-27T03:23:53;24.50;1.00
2623;DHT22;1321;48.690;9.022;2022-08-27T03:26:21;24.50;99.90
2623;DHT22;1321;48.690;9.022;2022-08-27T03:28:50;24.50;99.90
2623;DHT22;1321;48.690;9.022;2022-08-27T03:31:20;24.40;99.90
2623;DHT22;1321;48.690;9.022;2022-08-27T03:33:54;24.40;99.90
2623;DHT22;1321;48.690;9.022;2022-08-27T03:36:24;24.40;99.90
2623;DHT22;1321;48.690;9.022;2022-08-27T03:38:53;24.40;99.90
2623;DHT22;1321;48.690;9.022;2022-08-27T03:41:21;24.40;99.90
2623;DHT22;1321;48.690;9.022;2022-08-27T03:44:10;24.40;99.90
2623;DHT22;1321;48.690;9.022;2022-08-27T03:46:47;24.40;99.90
2623;DHT22;1321;48.690;9.022;2022-08-27T03:49:16;24.30;99.90
2623;DHT22;1321;48.690;9.022;2022-08-27T03:51:51;24.40;99.90
2623;DHT22;1321;48.690;9.022;2022-08-27T03:54:20;24.30;99.90
2623;DHT22;1321;48.690;9.022;2022-08-27T03:56:48;24.30;99.90
2623;DHT22;1321;48.690;9.022;2022-08-27T03:59:16;24.30;99.90
2623;DHT22;1321;48.690;9.022;2022-08-27T04:01:44;24.30;99.90
2623;DHT22;1321;48.690;9.022;2022-08-27T04:04:13;24.30;99.90
2623;DHT22;1321;48.690;9.022;2022-08-27T04:06:41;24.30;99.90
2623;DHT22;1321;48.690;9.022;2022-08-27T04:09:11;24.20;99.90
2623;DHT22;1321;48.690;9.022;2022-08-27T04:11:39;24.20;99.90
2623;DHT22;1321;48.690;9.022;2022-08-27T04:14:07;24.30;99.90
2623;DHT22;1321;48.690;9.022;2022-08-27T04:16:53;24.30;99.90
2623;DHT22;1321;48.690;9.022;2022-08-27T04:19:22;24.30;99.90
2623;DHT22;1321;48.690;9.022;2022-08-27T04:21:58;24.30;99.90
2623;DHT22;1321;48.690;9.022;2022-08-27T04:24:30;24.30;99.90
2623;DHT22;1321;48.690;9.022;2022-08-27T04:26:59;24.30;99.90
2623;DHT22;1321;48.690;9.022;2022-08-27T04:29:27;24.30;99.90
2623;DHT22;1321;48.690;9.022;2022-08-27T04:31:56;24.20;99.90
2623;DHT22;1321;48.690;9.022;2022-08-27T04:34:24;24.30;99.90
2623;DHT22;1321;48.690;9.022;2022-08-27T04:36:54;24.30;99.90
2623;DHT22;1321;48.690;9.022;2022-08-27T04:39:23;24.30;99.90
2623;DHT22;1321;48.690;9.022;2022-08-27T04:41:55;24.30;99.90
2623;DHT22;1321;48.690;9.022;2022-08-27T04:44:27;24.30;99.90
2623;DHT22;1321;48.690;9.022;2022-08-27T04:46:58;24.30;99.90
2623;DHT22;1321;48.690;9.022;2022-08-27T04:49:27;24.30;99.90
2623;DHT22;1321;48.690;9.022;2022-08-27T04:51:57;24.30;99.90
2623;DHT22;1321;48.690;9.022;2022-08-27T04:54:25;24.30;99.90
2623;DHT22;1321;48.690;9.022;2022-08-27T04:56:59;24.30;99.90
2623;DHT22;1321;48.690;9.022;2022-08-27T04:59:29;24.30;99.90
2623;DHT22;1321;48.690;9.022;2022-08-27T05:01:58;24.30;99.90
2623;DHT22;1321;48.690;9.022;2022-08-27T05:04:31;24.20;99.90
2623;DHT22;1321;48.690;9.022;2022-08-27T05:07:01;24.30;99.90
2623;DHT22;1321;48.690;9.022;2022-08-27T05:09:29;24.20;99.90
2623;DHT22;1321;48.690;9.022;2022-08-27T05:11:59;24.20;1.00
2623;DHT22;1321;48.690;9.022;2022-08-27T05:14:27;24.20;1.00
2623;DHT22;1321;48.690;9.022;2022-08-27T05:16:58;24.20;1.00
2623;DHT22;1321;48.690;9.022;2022-08-27T05:19:27;24.20;99.90
2623;DHT22;1321;48.690;9.022;2022-08-27T05:21:55;24.20;1.00
2623;DHT22;1321;48.690;9.022;2022-08-27T05:24:23;24.20;1.00
2623;DHT22;1321;48.690;9.022;2022-08-27T05:26:52;24.20;1.00
2623;DHT22;1321;48.690;9.022;2022-08-27T05:29:22;24.20;1.00
2623;DHT22;1321;48.690;9.022;2022-08-27T05:31:50;24.20;1.00
2623;DHT22;1321;48.690;9.022;2022-08-27T05:34:18;24.20;1.00
2623;DHT22;1321;48.690;9.022;2022-08-27T05:36:51;24.20;1.00
2623;DHT22;1321;48.690;9.022;2022-08-27T05:39:20;24.20;1.00
2623;DHT22;1321;48.690;9.022;2022-08-27T05:41:48;24.20;1.00
2623;DHT22;1321;48.690;9.022;2022-08-27T05:44:18;24.20;1.00
2623;DHT22;1321;48.690;9.022;2022-08-27T05:47:08;24.20;1.00
2623;DHT22;1321;48.690;9.022;2022-08-27T05:49:36;24.20;1.00
2623;DHT22;1321;48.690;9.022;2022-08-27T05:52:08;24.20;1.00
2623;DHT22;1321;48.690;9.022;2022-08-27T05:54:37;24.20;1.00
2623;DHT22;1321;48.690;9.022;2022-08-27T05:57:05;24.30;1.00
2623;DHT22;1321;48.690;9.022;2022-08-27T05:59:34;24.30;1.00
2623;DHT22;1321;48.690;9.022;2022-08-27T06:02:21;24.30;1.00
2623;DHT22;1321;48.690;9.022;2022-08-27T06:04:49;24.30;1.00
2623;DHT22;1321;48.690;9.022;2022-08-27T06:07:19;24.40;1.00
2623;DHT22;1321;48.690;9.022;2022-08-27T06:09:47;24.40;1.00
2623;DHT22;1321;48.690;9.022;2022-08-27T06:12:15;24.40;1.00
2623;DHT22;1321;48.690;9.022;2022-08-27T06:14:43;24.40;1.00
2623;DHT22;1321;48.690;9.022;2022-08-27T06:17:11;24.40;1.00
2623;DHT22;1321;48.690;9.022;2022-08-27T06:19:41;24.40;1.00
2623;DHT22;1321;48.690;9.022;2022-08-27T06:22:09;24.40;1.00
2623;DHT22;1321;48.690;9.022;2022-08-27T06:24:38;24.40;1.00
2623;DHT22;1321;48.690;9.022;2022-08-27T06:27:08;24.40;1.00
2623;DHT22;1321;48.690;9.022;2022-08-27T06:29:37;24.40;1.00
2623;DHT22;1321;48.690;9.022;2022-08-27T06:32:05;24.40;1.00
2623;DHT22;1321;48.690;9.022;2022-08-27T06:34:35;24.50;1.00
2623;DHT22;1321;48.690;9.022;2022-08-27T06:37:05;24.40;1.00
2623;DHT22;1321;48.690;9.022;2022-08-27T06:39:34;24.40;1.00
2623;DHT22;1321;48.690;9.022;2022-08-27T06:42:04;24.50;1.00
2623;DHT22;1321;48.690;9.022;2022-08-27T06:44:32;24.50;1.00
2623;DHT22;1321;48.690;9.022;2022-08-27T06:47:01;24.50;1.00
2623;DHT22;1321;48.690;9.022;2022-08-27T06:49:30;24.50;1.00
2623;DHT22;1321;48.690;9.022;2022-08-27T06:51:59;24.50;1.00
2623;DHT22;1321;48.690;9.022;2022-08-27T06:54:29;24.50;1.00
2623;DHT22;1321;48.690;9.022;2022-08-27T06:56:58;24.50;1.00
2623;DHT22;1321;48.690;9.022;2022-08-27T06:59:26;24.50;1.00
2623;DHT22;1321;48.690;9.022;2022-08-27T07:01:55;24.50;1.00
2623;DHT22;1321;48.690;9.022;2022-08-27T07:04:24;24.50;1.00
2623;DHT22;1321;48.690;9.022;2022-08-27T07:06:59;24.50;1.00
2623;DHT22;1321;48.690;9.022;2022-08-27T07:09:29;24.60;1.00
2623;DHT22;1321;48.690;9.022;2022-08-27T07:11:58;24.60;1.00
2623;DHT22;1321;48.690;9.022;2022-08-27T07:14:27;24.50;1.00
2623;DHT22;1321;48.690;9.022;2022-08-27T07:17:01;24.60;1.00
2623;DHT22;1321;48.690;9.022;2022-08-27T07:19:29;24.60;1.00
2623;DHT22;1321;48.690;9.022;2022-08-27T07:21:59;24.60;1.00
2623;DHT22;1321;48.690;9.022;2022-08-27T07:24:29;24.60;1.00
2623;DHT22;1321;48.690;9.022;2022-08-27T07:26:57;24.60;1.00
2623;DHT22;1321;48.690;9.022;2022-08-27T07:29:25;24.60;1.00
2623;DHT22;1321;48.690;9.022;2022-08-27T07:31:58;24.60;1.00
2623;DHT22;1321;48.690;9.022;2022-08-27T07:34:26;24.60;1.00
2623;DHT22;1321;48.690;9.022;2022-08-27T07:36:54;24.70;1.00
2623;DHT22;1321;48.690;9.022;2022-08-27T07:39:22;24.70;1.00
2623;DHT22;1321;48.690;9.022;2022-08-27T07:41:54;24.70;1.00
2623;DHT22;1321;48.690;9.022;2022-08-27T07:44:40;24.80;1.00
2623;DHT22;1321;48.690;9.022;2022-08-27T07:47:08;24.80;1.00
2623;DHT22;1321;48.690;9.022;2022-08-27T07:49:36;24.80;1.00
2623;DHT22;1321;48.690;9.022;2022-08-27T07:52:05;24.80;1.00
2623;DHT22;1321;48.690;9.022;2022-08-27T07:54:33;24.80;1.00
2623;DHT22;1321;48.690;9.022;2022-08-27T07:57:02;24.80;1.00
2623;DHT22;1321;48.690;9.022;2022-08-27T07:59:31;24.80;1.00
2623;DHT22;1321;48.690;9.022;2022-08-27T08:01:59;24.80;1.00
2623;DHT22;1321;48.690;9.022;2022-08-27T08:04:28;24.80;1.00
2623;DHT22;1321;48.690;9.022;2022-08-27T08:06:56;24.80;1.00
2623;DHT22;1321;48.690;9.022;2022-08-27T08:09:24;24.80;1.00
2623;DHT22;1321;48.690;9.022;2022-08-27T08:11:52;24.80;1.00
2623;DHT22;1321;48.690;9.022;2022-08-27T08:14:22;24.80;1.00
2623;DHT22;1321;48.690;9.022;2022-08-27T08:16:50;24.80;1.00
2623;DHT22;1321;48.690;9.022;2022-08-27T08:19:19;24.80;1.00
2623;DHT22;1321;48.690;9.022;2022-08-27T08:21:47;24.80;1.00
2623;DHT22;1321;48.690;9.022;2022-08-27T08:24:22;24.80;1.00
2623;DHT22;1321;48.690;9.022;2022-08-27T08:26:51;24.80;1.00
2623;DHT22;1321;48.690;9.022;2022-08-27T08:29:19;24.80;1.00
2623;DHT22;1321;48.690;9.022;2022-08-27T08:31:49;24.80;1.00
2623;DHT22;1321;48.690;9.022;2022-08-27T08:34:17;24.80;1.00
2623;DHT22;1321;48.690;9.022;2022-08-27T08:36:46;24.90;1.00
2623;DHT22;1321;48.690;9.022;2022-08-27T08:39:21;24.90;1.00
2623;DHT22;1321;48.690;9.022;2022-08-27T08:41:51;24.80;1.00
2623;DHT22;1321;48.690;9.022;2022-08-27T08:44:27;24.90;1.00
2623;DHT22;1321;48.690;9.022;2022-08-27T08:47:02;25.40;1.00
2623;DHT22;1321;48.690;9.022;2022-08-27T08:49:44;24.90;1.00
2623;DHT22;1321;48.690;9.022;2022-08-27T08:52:28;24.90;1.00
2623;DHT22;1321;48.690;9.022;2022-08-27T08:55:06;24.90;1.00
2623;DHT22;1321;48.690;9.022;2022-08-27T08:57:38;25.00;1.00
2623;DHT22;1321;48.690;9.022;2022-08-27T09:00:10;25.00;1.00
2623;DHT22;1321;48.690;9.022;2022-08-27T09:02:47;25.00;1.00
2623;DHT22;1321;48.690;9.022;2022-08-27T09:05:16;25.00;1.00
2623;DHT22;1321;48.690;9.022;2022-08-27T09:07:52;25.00;1.00
2623;DHT22;1321;48.690;9.022;2022-08-27T09:10:46;25.00;1.00
2623;DHT22;1321;48.690;9.022;2022-08-27T09:13:20;25.00;1.00
2623;DHT22;1321;48.690;9.022;2022-08-27T09:15:51;25.00;1.00
2623;DHT22;1321;48.690;9.022;2022-08-27T09:18:22;25.00;1.00
2623;DHT22;1321;48.690;9.022;2022-08-27T09:20:59;24.90;1.00
2623;DHT22;1321;48.690;9.022;2022-08-27T09:23:42;25.00;1.00
2623;DHT22;1321;48.690;9.022;2022-08-27T09:26:24;25.00;1.00
2623;DHT22;1321;48.690;9.022;2022-08-27T09:28:56;25.00;1.00
2623;DHT22;1321;48.690;9.022;2022-08-27T09:31:44;25.00;1.00
2623;DHT22;1321;48.690;9.022;2022-08-27T09:34:15;25.00;1.00
2623;DHT22;1321;48.690;9.022;2022-08-27T09:36:58;25.00;1.00
2623;DHT22;1321;48.690;9.022;2022-08-27T09:39:31;25.00;1.00
2623;DHT22;1321;48.690;9.022;2022-08-27T09:42:01;24.90;1.00
2623;DHT22;1321;48.690;9.022;2022-08-27T09:44:30;25.00;1.00
2623;DHT22;1321;48.690;9.022;2022-08-27T09:47:01;24.90;1.00
2623;DHT22;1321;48.690;9.022;2022-08-27T09:49:31;25.00;1.00
2623;DHT22;1321;48.690;9.022;2022-08-27T09:52:02;24.90;1.00
2623;DHT22;1321;48.690;9.022;2022-08-27T09:54:40;24.90;1.00
2623;DHT22;1321;48.690;9.022;2022-08-27T09:57:10;24.90;1.00
2623;DHT22;1321;48.690;9.022;2022-08-27T09:59:42;24.80;1.00
2623;DHT22;1321;48.690;9.022;2022-08-27T10:02:15;24.90;1.00
2623;DHT22;1321;48.690;9.022;2022-08-27T10:04:47;24.90;1.00
2623;DHT22;1321;48.690;9.022;2022-08-27T10:07:25;24.90;1.00
2623;DHT22;1321;48.690;9.022;2022-08-27T10:10:02;24.90;1.00
2623;DHT22;1321;48.690;9.022;2022-08-27T10:12:35;24.80;1.00
2623;DHT22;1321;48.690;9.022;2022-08-27T10:15:08;24.80;1.00
2623;DHT22;1321;48.690;9.022;2022-08-27T10:17:47;24.80;1.00
2623;DHT22;1321;48.690;9.022;2022-08-27T10:20:26;24.80;1.00
2623;DHT22;1321;48.690;9.022;2022-08-27T10:23:04;24.80;1.00
2623;DHT22;1321;48.690;9.022;2022-08-27T10:25:40;24.90;1.00
2623;DHT22;1321;48.690;9.022;2022-08-27T10:28:19;24.80;1.00
2623;DHT22;1321;48.690;9.022;2022-08-27T10:31:00;24.80;1.00
2623;DHT22;1321;48.690;9.022;2022-08-27T10:33:36;24.80;1.00
2623;DHT22;1321;48.690;9.022;2022-08-27T10:36:13;24.80;1.00
2623;DHT22;1321;48.690;9.022;2022-08-27T10:38:49;24.80;1.00
2623;DHT22;1321;48.690;9.022;2022-08-27T10:41:25;24.80;1.00
2623;DHT22;1321;48.690;9.022;2022-08-27T10:44:08;24.80;1.00
2623;DHT22;1321;48.690;9.022;2022-08-27T10:46:48;24.80;1.00
2623;DHT22;1321;48.690;9.022;2022-08-27T10:49:27;24.90;1.00
2623;DHT22;1321;48.690;9.022;2022-08-27T10:52:08;24.90;1.00
2623;DHT22;1321;48.690;9.022;2022-08-27T10:54:46;24.90;1.00
2623;DHT22;1321;48.690;9.022;2022-08-27T10:57:25;24.90;1.00
2623;DHT22;1321;48.690;9.022;2022-08-27T11:00:18;25.00;1.00
2623;DHT22;1321;48.690;9.022;2022-08-27T11:02:50;24.90;1.00
2623;DHT22;1321;48.690;9.022;2022-08-27T11:05:23;24.90;1.00
2623;DHT22;1321;48.690;9.022;2022-08-27T11:07:58;24.90;1.00
2623;DHT22;1321;48.690;9.022;2022-08-27T11:10:31;24.90;1.00
2623;DHT22;1321;48.690;9.022;2022-08-27T11:13:06;24.90;1.00
2623;DHT22;1321;48.690;9.022;2022-08-27T11:15:37;24.90;1.00
2623;DHT22;1321;48.690;9.022;2022-08-27T11:18:10;25.00;1.00
2623;DHT22;1321;48.690;9.022;2022-08-27T11:20:46;25.00;1.00
2623;DHT22;1321;48.690;9.022;2022-08-27T11:23:18;25.00;1.00
2623;DHT22;1321;48.690;9.022;2022-08-27T11:25:51;24.90;1.00
2623;DHT22;1321;48.690;9.022;2022-08-27T11:28:32;25.00;1.00
2623;DHT22;1321;48.690;9.022;2022-08-27T11:31:09;25.00;1.00
2623;DHT22;1321;48.690;9.022;2022-08-27T11:33:48;25.10;1.00
2623;DHT22;1321;48.690;9.022;2022-08-27T11:36:43;25.00;1.00
2623;DHT22;1321;48.690;9.022;2022-08-27T11:39:35;25.00;1.00
2623;DHT22;1321;48.690;9.022;2022-08-27T11:42:12;25.00;1.00
2623;DHT22;1321;48.690;9.022;2022-08-27T11:44:47;25.00;1.00
2623;DHT22;1321;48.690;9.022;2022-08-27T11:47:19;25.00;1.00
2623;DHT22;1321;48.690;9.022;2022-08-27T11:49:50;25.00;1.00
2623;DHT22;1321;48.690;9.022;2022-08-27T11:52:22;25.10;1.00
2623;DHT22;1321;48.690;9.022;2022-08-27T11:54:55;25.00;1.00
2623;DHT22;1321;48.690;9.022;2022-08-27T11:57:28;25.00;1.00
2623;DHT22;1321;48.690;9.022;2022-08-27T11:59:56;25.00;1.00
2623;DHT22;1321;48.690;9.022;2022-08-27T12:02:27;25.00;1.00
2623;DHT22;1321;48.690;9.022;2022-08-27T12:05:07;25.00;1.00
2623;DHT22;1321;48.690;9.022;2022-08-27T12:07:37;25.00;1.00
2623;DHT22;1321;48.690;9.022;2022-08-27T12:10:29;25.10;1.00
2623;DHT22;1321;48.690;9.022;2022-08-27T12:13:12;25.10;7.50
2623;DHT22;1321;48.690;9.022;2022-08-27T12:15:54;25.20;53.10
2623;DHT22;1321;48.690;9.022;2022-08-27T12:18:50;25.20;98.00
2623;DHT22;1321;48.690;9.022;2022-08-27T12:21:28;25.20;99.90
2623;DHT22;1321;48.690;9.022;2022-08-27T12:24:39;25.20;99.90
2623;DHT22;1321;48.690;9.022;2022-08-27T12:27:26;25.20;99.90
2623;DHT22;1321;48.690;9.022;2022-08-27T12:29:57;25.20;99.90
2623;DHT22;1321;48.690;9.022;2022-08-27T12:32:29;25.20;99.90
2623;DHT22;1321;48.690;9.022;2022-08-27T12:35:03;25.20;99.90
2623;DHT22;1321;48.690;9.022;2022-08-27T12:37:36;25.30;1.00
2623;DHT22;1321;48.690;9.022;2022-08-27T12:40:11;25.30;82.50
2623;DHT22;1321;48.690;9.022;2022-08-27T12:42:41;25.30;99.90
2623;DHT22;1321;48.690;9.022;2022-08-27T12:45:18;25.30;99.90
2623;DHT22;1321;48.690;9.022;2022-08-27T12:47:47;25.30;1.00
2623;DHT22;1321;48.690;9.022;2022-08-27T12:50:22;25.30;1.00
2623;DHT22;1321;48.690;9.022;2022-08-27T12:53:18;25.30;1.00
2623;DHT22;1321;48.690;9.022;2022-08-27T12:56:07;25.40;1.00
2623;DHT22;1321;48.690;9.022;2022-08-27T12:58:45;25.40;1.00
2623;DHT22;1321;48.690;9.022;2022-08-27T13:01:29;25.40;1.00
2623;DHT22;1321;48.690;9.022;2022-08-27T13:03:58;25.30;1.00
2623;DHT22;1321;48.690;9.022;2022-08-27T13:06:29;25.40;1.00
2623;DHT22;1321;48.690;9.022;2022-08-27T13:09:01;25.40;1.00
2623;DHT22;1321;48.690;9.022;2022-08-27T13:11:32;25.40;1.00
2623;DHT22;1321;48.690;9.022;2022-08-27T13:14:07;25.40;1.00
2623;DHT22;1321;48.690;9.022;2022-08-27T13:16:37;25.40;1.00
2623;DHT22;1321;48.690;9.022;2022-08-27T13:19:23;25.50;1.00
2623;DHT22;1321;48.690;9.022;2022-08-27T13:21:52;25.40;1.00
2623;DHT22;1321;48.690;9.022;2022-08-27T13:24:27;25.40;1.00
2623;DHT22;1321;48.690;9.022;2022-08-27T13:26:57;25.40;1.00
2623;DHT22;1321;48.690;9.022;2022-08-27T13:29:27;25.50;1.00
2623;DHT22;1321;48.690;9.022;2022-08-27T13:31:55;25.50;1.00
2623;DHT22;1321;48.690;9.022;2022-08-27T13:34:26;25.50;1.00
2623;DHT22;1321;48.690;9.022;2022-08-27T13:36:58;25.50;1.00
2623;DHT22;1321;48.690;9.022;2022-08-27T13:39:28;25.50;1.00
2623;DHT22;1321;48.690;9.022;2022-08-27T13:41:58;25.50;1.00
2623;DHT22;1321;48.690;9.022;2022-08-27T13:44:31;25.50;99.90
2623;DHT22;1321;48.690;9.022;2022-08-27T13:47:02;25.50;1.00
2623;DHT22;1321;48.690;9.022;2022-08-27T13:49:34;25.50;1.00
2623;DHT22;1321;48.690;9.022;2022-08-27T13:52:22;25.50;99.90
2623;DHT22;1321;48.690;9.022;2022-08-27T13:54:56;25.50;99.90
2623;DHT22;1321;48.690;9.022;2022-08-27T13:57:27;25.50;1.00
2623;DHT22;1321;48.690;9.022;2022-08-27T14:00:07;25.50;99.90
2623;DHT22;1321;48.690;9.022;2022-08-27T14:02:37;25.50;1.00
2623;DHT22;1321;48.690;9.022;2022-08-27T14:05:09;25.50;99.90
2623;DHT22;1321;48.690;9.022;2022-08-27T14:07:41;25.50;99.90
2623;DHT22;1321;48.690;9.022;2022-08-27T14:10:29;25.50;99.90
2623;DHT22;1321;48.690;9.022;2022-08-27T14:13:00;25.50;99.90
2623;DHT22;1321;48.690;9.022;2022-08-27T14:15:31;25.50;99.90
2623;DHT22;1321;48.690;9.022;2022-08-27T14:18:00;25.50;99.90
2623;DHT22;1321;48.690;9.022;2022-08-27T14:20:29;25.50;99.90
2623;DHT22;1321;48.690;9.022;2022-08-27T14:22:57;25.50;99.90
2623;DHT22;1321;48.690;9.022;2022-08-27T14:25:25;25.50;99.90
2623;DHT22;1321;48.690;9.022;2022-08-27T14:27:54;25.50;99.90
2623;DHT22;1321;48.690;9.022;2022-08-27T14:30:25;25.50;99.90
2623;DHT22;1321;48.690;9.022;2022-08-27T14:32:58;25.50;99.90
2623;DHT22;1321;48.690;9.022;2022-08-27T14:35:28;25.50;99.90
2623;DHT22;1321;48.690;9.022;2022-08-27T14:37:56;25.50;99.90
2623;DHT22;1321;48.690;9.022;2022-08-27T14:40:25;25.50;99.90
2623;DHT22;1321;48.690;9.022;2022-08-27T14:42:53;25.50;99.90
2623;DHT22;1321;48.690;9.022;2022-08-27T14:45:21;25.40;99.90
2623;DHT22;1321;48.690;9.022;2022-08-27T14:47:50;25.50;99.90
2623;DHT22;1321;48.690;9.022;2022-08-27T14:50:26;25.50;99.90
2623;DHT22;1321;48.690;9.022;2022-08-27T14:52:54;25.50;99.90
2623;DHT22;1321;48.690;9.022;2022-08-27T14:55:22;25.50;99.90
2623;DHT22;1321;48.690;9.022;2022-08-27T14:57:51;25.50;99.90
2623;DHT22;1321;48.690;9.022;2022-08-27T15:00:19;25.50;99.90
2623;DHT22;1321;48.690;9.022;2022-08-27T15:02:47;25.50;99.90
2623;DHT22;1321;48.690;9.022;2022-08-27T15:05:16;25.50;99.90
2623;DHT22;1321;48.690;9.022;2022-08-27T15:07:51;25.50;99.90
2623;DHT22;1321;48.690;9.022;2022-08-27T15:10:20;25.50;99.90
2623;DHT22;1321;48.690;9.022;2022-08-27T15:12:49;25.50;99.90
2623;DHT22;1321;48.690;9.022;2022-08-27T15:15:17;25.60;99.90
2623;DHT22;1321;48.690;9.022;2022-08-27T15:17:45;25.60;99.90
2623;DHT22;1321;48.690;9.022;2022-08-27T15:20:15;25.60;99.90
2623;DHT22;1321;48.690;9.022;2022-08-27T15:22:47;25.60;99.90
2623;DHT22;1321;48.690;9.022;2022-08-27T15:25:19;25.60;99.90
2623;DHT22;1321;48.690;9.022;2022-08-27T15:27:47;25.60;99.90
2623;DHT22;1321;48.690;9.022;2022-08-27T15:30:17;25.60;99.90
2623;DHT22;1321;48.690;9.022;2022-08-27T15:32:49;25.60;99.90
2623;DHT22;1321;48.690;9.022;2022-08-27T15:35:19;25.50;99.90
2623;DHT22;1321;48.690;9.022;2022-08-27T15:37:48;25.50;99.90
2623;DHT22;1321;48.690;9.022;2022-08-27T15:40:18;25.50;99.90
2623;DHT22;1321;48.690;9.022;2022-08-27T15:42:49;25.50;99.90
2623;DHT22;1321;48.690;9.022;2022-08-27T15:45:19;25.50;1.00
2623;DHT22;1321;48.690;9.022;2022-08-27T15:47:51;25.50;1.00
2623;DHT22;1321;48.690;9.022;2022-08-27T15:50:19;25.50;1.00
2623;DHT22;1321;48.690;9.022;2022-08-27T15:52:48;25.50;99.90
2623;DHT22;1321;48.690;9.022;2022-08-27T15:55:24;25.50;99.90
2623;DHT22;1321;48.690;9.022;2022-08-27T15:57:52;25.50;99.90
2623;DHT22;1321;48.690;9.022;2022-08-27T16:00:22;25.50;99.90
2623;DHT22;1321;48.690;9.022;2022-08-27T16:02:51;25.50;99.90
2623;DHT22;1321;48.690;9.022;2022-08-27T16:05:20;25.50;99.90
2623;DHT22;1321;48.690;9.022;2022-08-27T16:07:48;25.50;99.90
2623;DHT22;1321;48.690;9.022;2022-08-27T16:10:17;25.50;99.90
2623;DHT22;1321;48.690;9.022;2022-08-27T16:12:46;25.50;99.90
2623;DHT22;1321;48.690;9.022;2022-08-27T16:15:15;25.50;99.90
2623;DHT22;1321;48.690;9.022;2022-08-27T16:17:43;25.50;99.90
2623;DHT22;1321;48.690;9.022;2022-08-27T16:20:13;25.50;99.90
2623;DHT22;1321;48.690;9.022;2022-08-27T16:22:42;25.50;99.90
2623;DHT22;1321;48.690;9.022;2022-08-27T16:25:11;25.50;99.90
2623;DHT22;1321;48.690;9.022;2022-08-27T16:27:45;25.50;99.90
2623;DHT22;1321;48.690;9.022;2022-08-27T16:30:14;25.50;99.90
2623;DHT22;1321;48.690;9.022;2022-08-27T16:32:44;25.50;99.90
2623;DHT22;1321;48.690;9.022;2022-08-27T16:35:13;25.50;99.90
2623;DHT22;1321;48.690;9.022;2022-08-27T16:37:42;25.50;99.90
2623;DHT22;1321;48.690;9.022;2022-08-27T16:40:12;25.50;99.90